Current Weather

Aeroflex-Andover Airport

Aeroflex-Andover Airport, New Jersey (K12N)

Report from: Monday, June 17, 2024 4:54 AM EDT
Current time: Monday, June 17, 2024 5:48 AM EDT

Nearby weather – Weather history – Daily summaries
Weather forecast

Temperature14.4°C (57.9°F)
Dew point13.9°C (57.0°F)
Winds Calm
Altimeter30.20 in.Hg (1023 mB)
Relative humidity97 %
Density altitude-150 ft. (-46 m)
Sea-level pressure102.2 kPa (1022 mB, 30.18 in.Hg)
Remarks Fully automated report
System requires maintenance
Automated weather observing station without precipitation discriminator
Pressure falling more slowly
Raw dataK12N 170854Z AUTO 00000KT 14/14 A3020 RMK AO1 SLP221 T01440139 56006 $
An error has occurred. This application may no longer respond until reloaded. Reload 🗙